Map

Track Data

SID SEASON NUMBER BASIN SUBBASIN NAME ISO_TIME NATURE LAT LON WMO_WIND WMO_PRES WMO_AGENCY TRACK_TYPE DIST2LAND LANDFALL IFLAG USA_AGENCY USA_ATCF_ID USA_LAT USA_LON USA_RECORD USA_STATUS USA_WIND USA_PRES USA_SSHS USA_R34_NE USA_R34_SE USA_R34_SW USA_R34_NW USA_R50_NE USA_R50_SE USA_R50_SW USA_R50_NW USA_R64_NE USA_R64_SE USA_R64_SW USA_R64_NW USA_POCI USA_ROCI USA_RMW USA_EYE TOKYO_LAT TOKYO_LON TOKYO_GRADE TOKYO_WIND TOKYO_PRES TOKYO_R50_DIR TOKYO_R50_LONG TOKYO_R50_SHORT TOKYO_R30_DIR TOKYO_R30_LONG TOKYO_R30_SHORT TOKYO_LAND CMA_LAT CMA_LON CMA_CAT CMA_WIND CMA_PRES HKO_LAT HKO_LON HKO_CAT HKO_WIND HKO_PRES NEWDELHI_LAT NEWDELHI_LON NEWDELHI_GRADE NEWDELHI_WIND NEWDELHI_PRES NEWDELHI_CI NEWDELHI_DP NEWDELHI_POCI REUNION_LAT REUNION_LON REUNION_TYPE REUNION_WIND REUNION_PRES REUNION_TNUM REUNION_CI REUNION_RMW REUNION_R34_NE REUNION_R34_SE REUNION_R34_SW REUNION_R34_NW REUNION_R50_NE REUNION_R50_SE REUNION_R50_SW REUNION_R50_NW REUNION_R64_NE REUNION_R64_SE REUNION_R64_SW REUNION_R64_NW BOM_LAT BOM_LON BOM_TYPE BOM_WIND BOM_PRES BOM_TNUM BOM_CI BOM_RMW BOM_R34_NE BOM_R34_SE BOM_R34_SW BOM_R34_NW BOM_R50_NE BOM_R50_SE BOM_R50_SW BOM_R50_NW BOM_R64_NE BOM_R64_SE BOM_R64_SW BOM_R64_NW BOM_ROCI BOM_POCI BOM_EYE BOM_POS_METHOD BOM_PRES_METHOD NADI_LAT NADI_LON NADI_CAT NADI_WIND NADI_PRES WELLINGTON_LAT WELLINGTON_LON WELLINGTON_WIND WELLINGTON_PRES DS824_LAT DS824_LON DS824_STAGE DS824_WIND DS824_PRES TD9636_LAT TD9636_LON TD9636_STAGE TD9636_WIND TD9636_PRES TD9635_LAT TD9635_LON TD9635_WIND TD9635_PRES TD9635_ROCI NEUMANN_LAT NEUMANN_LON NEUMANN_CLASS NEUMANN_WIND NEUMANN_PRES MLC_LAT MLC_LON MLC_CLASS MLC_WIND MLC_PRES USA_GUST BOM_GUST BOM_GUST_PER REUNION_GUST REUNION_GUST_PER USA_SEAHGT USA_SEARAD_NE USA_SEARAD_SE USA_SEARAD_SW USA_SEARAD_NW STORM_SPEED STORM_DIR
1983259N08161 1983 58 WP MM FORREST 1983-09-16 00:00:00 NR 7.90000 161.000 main 1604 1604 __________O___ -1 7.90000 161.000 0 5 64
1983259N08161 1983 58 WP MM FORREST 1983-09-16 03:00:00 NR 8.00960 161.229 main 1626 1626 __________P___ -1 8.00960 161.229 0 5 66
1983259N08161 1983 58 WP MM FORREST 1983-09-16 06:00:00 NR 8.10030 161.446 main 1649 1649 __________P___ -1 8.10030 161.446 0 4 70
1983259N08161 1983 58 WP MM FORREST 1983-09-16 09:00:00 NR 8.15339 161.638 main 1671 1671 __________P___ -1 8.15339 161.638 0 3 82
1983259N08161 1983 58 WP MM FORREST 1983-09-16 12:00:00 NR 8.15018 161.793 main 1684 1675 __________P___ -1 8.15018 161.793 0 3 107
1983259N08161 1983 58 WP MM FORREST 1983-09-16 15:00:00 NR 8.07196 161.899 main 1681 1664 __________P___ -1 8.07196 161.899 0 3 149
1983259N08161 1983 58 WP MM FORREST 1983-09-16 18:00:00 NR 7.90005 161.944 main 1664 1637 __________P___ -1 7.90005 161.944 0 5 0
1983259N08161 1983 58 WP MM FORREST 1983-09-16 21:00:00 NR 7.61567 161.915 main 1637 1595 __________P___ -1 7.61567 161.915 0 7 191
1983259N08161 1983 58 WP MM FORREST 1983-09-17 00:00:00 NR 7.20000 161.800 main 1595 1538 __________O___ -1 7.20000 161.800 0 10 199
1983259N08161 1983 58 WP MM FORREST 1983-09-17 03:00:00 NR 6.65529 161.590 main 1538 1465 __________P___ -1 6.65529 161.590 0 13 204
1983259N08161 1983 58 WP MM FORREST 1983-09-17 06:00:00 NR 6.06841 161.284 main 1465 1394 __________P___ -1 6.06841 161.284 0 13 212
1983259N08161 1983 58 WP MM FORREST 1983-09-17 09:00:00 NR 5.54735 160.887 main 1385 1324 __________P___ -1 5.54735 160.887 0 12 225
1983259N08161 1983 58 WP MM FORREST 1983-09-17 12:00:00 NR 5.20000 160.400 main 1324 1289 __________O___ -1 5.20000 160.400 0 11 252
1983259N08161 1983 58 WP MM FORREST 1983-09-17 15:00:00 NR 5.20390 159.841 main 1282 1259 __________P___ -1 5.20390 159.841 0 12 279
1983259N08161 1983 58 WP MM FORREST 1983-09-17 18:00:00 NR 5.38017 159.199 main 1261 1231 __________P___ -1 5.38017 159.199 0 14 287
1983259N08161 1983 58 WP MM FORREST 1983-09-17 21:00:00 NR 5.61633 158.507 main 1231 1206 __________P___ -1 5.61633 158.507 0 15 287
1983259N08161 1983 58 WP MM FORREST 1983-09-18 00:00:00 NR 5.80000 157.800 main 1206 1162 __________O___ -1 5.80000 157.800 0 14 275
1983259N08161 1983 58 WP MM FORREST 1983-09-18 03:00:00 NR 5.73515 157.128 main 1156 1112 __________P___ -1 5.73515 157.128 0 14 262
1983259N08161 1983 58 WP MM FORREST 1983-09-18 06:00:00 NR 5.60729 156.449 main 1107 1065 __________P___ -1 5.60729 156.449 0 14 259
1983259N08161 1983 58 WP MM FORREST 1983-09-18 09:00:00 NR 5.47578 155.771 main 1065 1020 __________P___ -1 5.47578 155.771 0 14 261
1983259N08161 1983 58 WP MM FORREST 1983-09-18 12:00:00 NR 5.40000 155.100 main 1020 992 __________O___ -1 5.40000 155.100 0 13 267
1983259N08161 1983 58 WP MM FORREST 1983-09-18 15:00:00 NR 5.41124 154.455 main 992 974 __________P___ -1 5.41124 154.455 0 13 274
1983259N08161 1983 58 WP MM FORREST 1983-09-18 18:00:00 NR 5.49205 153.814 main 973 963 __________P___ -1 5.49205 153.814 0 13 281
1983259N08161 1983 58 WP MM FORREST 1983-09-18 21:00:00 NR 5.65184 153.167 main 975 969 __________P___ -1 5.65184 153.167 0 17 291
1983259N08161 1983 58 WP MM FORREST 1983-09-19 00:00:00 TS 6.12000 152.200 1006 tokyo main 996 995 _O________O___ -1 7.00000 151.000 2 1006 0 0 0 5.90000 152.500 0 21 298
1983259N08161 1983 58 WP MM FORREST 1983-09-19 03:00:00 TS 6.62994 151.287 main 1043 1043 _P________P___ -1 7.41273 150.253 2 1005 0 0 6.23854 151.805 0 21 300
1983259N08161 1983 58 WP MM FORREST 1983-09-19 06:00:00 TS 7.14840 150.407 1004 tokyo main 1083 1083 _O________P___ -1 7.80000 149.500 2 1004 0 0 0 6.65969 151.087 0 20 300
1983259N08161 1983 58 WP MM FORREST 1983-09-19 09:00:00 TS 7.63794 149.547 main 1111 1111 _P________P___ -1 8.14990 148.742 2 1004 0 0 7.12598 150.351 0 19 298
1983259N08161 1983 58 WP MM FORREST 1983-09-19 12:00:00 TS 8.04445 148.711 1004 tokyo main 1140 1140 _OO_______O___ -1 8.50000 148.000 2 1004 0 0 0 8.00000 148.000 0 19 1006 7.60000 149.600 0 18 298
1983259N08161 1983 58 WP MM FORREST 1983-09-19 15:00:00 TS 8.49840 147.902 main 1189 1188 _PP_______P___ -1 8.89994 147.270 2 1004 0 0 8.58522 147.345 0 21 1005 8.05345 148.811 0 18 300
1983259N08161 1983 58 WP MM FORREST 1983-09-19 18:00:00 TS 8.95549 147.141 1004 tokyo main 1243 1243 _OO_______P___ -1 9.30000 146.600 2 1004 0 0 0 9.10000 146.700 1 23 1004 8.50260 148.013 0 17 301
1983259N08161 1983 58 WP MM FORREST 1983-09-19 21:00:00 TS 9.36423 146.441 main 1288 1288 _PP_______P___ -1 9.67236 146.012 2 1003 0 0 9.49492 146.077 1 26 1004 8.92540 147.233 0 15 300
1983259N08161 1983 58 WP MM FORREST 1983-09-20 00:00:00 TS 9.70000 145.833 1002 tokyo main 1325 1325 _OO_______O___ -1 10.0000 145.500 2 1002 0 0 0 9.80000 145.500 1 29 1004 9.30000 146.500 0 13 298
1983259N08161 1983 58 WP MM FORREST 1983-09-20 03:00:00 TS 9.96063 145.282 main 1363 1363 _PP_______P___ -1 10.2649 145.035 2 1001 0 0 10.0499 144.970 1 29 1003 9.56711 145.840 0 12 296
1983259N08161 1983 58 WP MM FORREST 1983-09-20 06:00:00 TS 10.2051 144.763 1000 tokyo main 1392 1392 _OOO______P___ -1 10.5000 144.600 2 1000 0 0 0 10.3000 144.500 1 29 1002 10.3000 144.600 TD 25 1000 9.79162 145.231 0 11 298
1983259N08161 1983 58 WP MM FORREST 1983-09-20 09:00:00 TS 10.4829 144.288 main 1434 1434 _PPP______P___ -1 10.7499 144.150 2 999 0 0 10.6499 144.092 1 33 1001 10.5400 144.223 TD 27 999 10.0204 144.656 0 11 301
1983259N08161 1983 58 WP MM FORREST 1983-09-20 12:00:00 TS 10.7438 143.844 35 998 tokyo main 1467 1467 OOOO______O___ jtwc_wp WP111983 10.3000 144.100 30 -1 11.0000 143.700 3 35 998 0 9 75 75 0 11.0000 143.700 2 38 1000 10.8000 143.800 TD 30 999 10.3000 144.100 1 30 10 301
1983259N08161 1983 58 WP MM FORREST 1983-09-20 15:00:00 TS 11.0206 143.376 main 1509 1509 PPPP______P___ WP111983 10.5999 143.697 35 -1 11.2424 143.250 3 35 997 0 9 75 75 11.2575 143.257 2 38 998 11.0925 143.307 TD 32 998 10.7003 143.528 1 35 11 302
1983259N08161 1983 58 WP MM FORREST 1983-09-20 18:00:00 TS 11.3273 142.899 35 996 tokyo main 1536 1536 OOOO______P___ jtwc_wp WP111983 11.0000 143.200 40 0 11.5000 142.800 3 35 996 0 9 75 75 0 11.5000 142.800 2 38 997 11.4000 142.800 TS 35 997 11.1546 142.970 1 40 12 305
1983259N08161 1983 58 WP MM FORREST 1983-09-20 21:00:00 TS 11.6903 142.410 main 1560 1560 PPPP______P___ WP111983 11.5502 142.558 45 -1 11.7924 142.357 3 45 995 0 9 112 112 11.7849 142.357 2 38 995 11.6924 142.350 TS 37 995 11.6316 142.428 1 45 12 308
1983259N08161 1983 58 WP MM FORREST 1983-09-21 00:00:00 TS 12.0800 141.900 55 994 tokyo main 1588 1585 OOOO______O___ jtwc_wp WP111983 12.1000 141.900 50 0 12.1000 141.900 4 55 994 9 30 30 9 150 150 0 12.1000 141.900 2 38 994 12.0000 141.900 TS 40 994 12.1000 141.900 2 50 12 307
1983259N08161 1983 58 WP MM FORREST 1983-09-21 03:00:00 TS 12.4288 141.397 main 1598 1598 PPPP______P___ WP111983 12.4648 141.377 52 -1 12.3775 141.407 4 57 992 9 40 40 9 175 175 12.4349 141.407 2 43 991 12.3424 141.407 TS 45 991 12.5243 141.386 2 52 12 306
1983259N08161 1983 58 WP MM FORREST 1983-09-21 06:00:00 TS 12.7867 140.897 60 990 tokyo main 1620 1607 OOOO______P___ jtwc_wp WP111983 12.8000 140.900 55 0 12.7000 140.900 4 60 990 9 50 50 9 200 200 0 12.8000 140.900 3 48 988 12.7000 140.900 STS 50 989 12.9336 140.886 2 55 12 308
1983259N08161 1983 58 WP MM FORREST 1983-09-21 09:00:00 TS 13.1877 140.396 main 1607 1559 PPPP______P___ WP111983 13.2499 140.400 57 -1 13.1349 140.400 4 60 987 9 50 50 9 200 200 13.1924 140.392 3 53 986 13.0349 140.392 STS 52 986 13.3261 140.393 2 57 13 310
1983259N08161 1983 58 WP MM FORREST 1983-09-21 12:00:00 TS 13.6000 139.900 60 985 tokyo main 1559 1514 OOOO______O___ jtwc_wp WP111983 13.7000 139.900 60 0 13.6000 139.900 4 60 985 9 50 50 9 200 200 0 13.6000 139.900 3 58 985 13.4000 139.900 STS 55 984 13.7000 139.900 2 60 12 310
1983259N08161 1983 58 WP MM FORREST 1983-09-21 15:00:00 TS 13.9892 139.420 main 1514 1479 PPPP______P___ WP111983 14.0574 139.400 62 -1 14.0149 139.400 4 62 982 9 50 50 9 225 225 13.9923 139.450 3 58 982 13.8348 139.450 STS 57 982 14.0466 139.400 2 62 12 310
1983259N08161 1983 58 WP MM FORREST 1983-09-21 18:00:00 TS 14.3800 138.940 65 980 tokyo main 1471 1433 OOOO______O___ jtwc_wp WP111983 14.4000 138.900 65 1 14.4000 138.900 5 65 980 9 50 50 9 250 250 0 14.4000 139.000 3 58 980 14.3000 139.000 STS 60 980 14.4000 138.900 3 65 12 310
1983259N08161 1983 58 WP MM FORREST 1983-09-21 21:00:00 TS 14.7743 138.441 main 1425 1389 PPPP______P___ WP111983 14.7774 138.400 65 -1 14.7274 138.392 5 65 977 9 50 50 9 250 250 14.8424 138.507 3 63 977 14.7424 138.507 STS 62 977 14.7820 138.397 3 65 13 310
1983259N08161 1983 58 WP MM FORREST 1983-09-22 00:00:00 TS 15.2000 137.940 65 975 tokyo main 1381 1350 OOOO______O___ jtwc_wp WP111983 15.2000 137.900 65 1 15.1000 137.900 5 65 975 9 50 50 9 250 250 0 15.3000 138.000 4 68 975 15.2000 138.000 T 65 975 15.2000 137.900 4 65 13 314
1983259N08161 1983 58 WP MM FORREST 1983-09-22 03:00:00 TS 15.6855 137.457 main 1353 1314 PPPP______P___ WP111983 15.6849 137.392 80 -1 15.6273 137.450 5 70 962 9 62 62 9 262 225 15.7424 137.500 4 77 962 15.6923 137.507 T 77 960 15.6806 137.435 4 78 14 317
1983259N08161 1983 58 WP MM FORREST 1983-09-22 06:00:00 TS 16.1998 136.976 75 950 tokyo main 1318 1287 OOOO______P___ jtwc_wp WP111983 16.2000 136.900 95 2 16.2000 137.000 5 75 950 9 75 75 2 275 200 0 16.2000 137.000 5 87 950 16.2000 137.000 ST 90 945 16.1990 136.980 4 92 14 318
1983259N08161 1983 58 WP MM FORREST 1983-09-22 09:00:00 TS 16.7124 136.498 main 1287 1255 PPPP______P___ WP111983 16.6996 136.472 107 -1 16.7222 136.530 5 87 937 9 87 87 2 287 200 16.7072 136.522 5 101 935 16.7149 136.457 ST 100 930 16.7179 136.510 4 106 14 316
1983259N08161 1983 58 WP MM FORREST 1983-09-22 12:00:00 TS 17.2000 135.980 100 925 tokyo main 1260 1223 OOOO______O___ jtwc_wp WP111983 17.2000 136.000 120 4 17.2000 136.000 5 100 925 9 100 100 1 300 200 0 17.2000 136.000 6 116 920 17.2000 135.900 SuperT 110 915 17.2000 136.000 4 120 14 311
1983259N08161 1983 58 WP MM FORREST 1983-09-22 15:00:00 TS 17.6474 135.368 main 1223 1190 PPPP______P___ WP111983 17.7451 135.373 130 -1 17.6301 135.365 5 105 907 9 112 112 1 300 200 17.6301 135.357 6 130 898 17.6298 135.357 SuperT 112 902 17.6019 135.385 4 127 15 305
1983259N08161 1983 58 WP MM FORREST 1983-09-22 18:00:00 TS 18.0322 134.727 110 890 tokyo main 1181 1147 OOOO______P___ jtwc_wp WP111983 18.2000 134.700 140 5 18.0000 134.700 5 110 890 9 125 125 1 300 200 0 18.0000 134.700 6 145 876 18.0000 134.800 SuperT 115 890 17.9610 134.735 4 135 14 300
1983259N08161 1983 58 WP MM FORREST 1983-09-22 21:00:00 TS 18.3433 134.110 main 1147 1114 PPPP______P___ WP111983 18.4373 134.084 145 -1 18.3300 134.062 5 110 887 9 125 125 1 300 200 18.3298 134.127 6 140 880 18.3301 134.185 SuperT 117 887 18.2894 134.092 4 142 13 297
1983259N08161 1983 58 WP MM FORREST 1983-09-23 00:00:00 TS 18.6000 133.540 110 885 tokyo main 1104 1078 OOOO______O___ jtwc_wp WP111983 18.6000 133.500 150 5 18.6000 133.500 5 110 885 9 125 125 1 300 200 0 18.6000 133.600 6 136 885 18.6000 133.600 SuperT 120 885 18.6000 133.500 4 150 11 296
1983259N08161 1983 58 WP MM FORREST 1983-09-23 03:00:00 TS 18.8312 133.035 main 1068 1044 PPPP______P___ WP111983 18.8275 132.905 147 -1 18.8072 133.070 5 110 885 9 125 125 1 300 250 18.8000 133.070 6 136 889 18.7998 133.120 SuperT 117 890 18.9215 133.013 4 146 10 298
1983259N08161 1983 58 WP MM FORREST 1983-09-23 06:00:00 TS 19.0657 132.596 110 885 tokyo main 1050 1027 OOOO______P___ jtwc_wp WP111983 19.1000 132.400 XX 145 -5 19.0000 132.700 5 110 885 9 125 125 9 300 300 0 19.0000 132.600 6 136 893 19.0000 132.700 SuperT 115 895 19.2287 132.581 4 142 9 304
1983259N08161 1983 58 WP MM FORREST 1983-09-23 09:00:00 TS 19.3582 132.219 main 1033 1018 PPPP______P___ WP111983 19.4497 132.070 XX 142 -5 19.2349 132.307 5 110 892 9 125 125 9 300 300 19.2922 132.242 6 131 897 19.2924 132.292 SuperT 115 897 19.5217 132.185 4 138 9 311
1983259N08161 1983 58 WP MM FORREST 1983-09-23 12:00:00 TS 19.6600 131.860 110 900 tokyo main 1019 980 OOOO______O___ jtwc_wp WP111983 19.8000 131.800 XX 140 -5 19.5000 131.900 5 110 900 9 125 125 9 300 300 0 19.6000 131.900 6 126 902 19.6000 131.900 SuperT 115 900 19.8000 131.800 4 135 9 308
1983259N08161 1983 58 WP MM FORREST 1983-09-23 15:00:00 TS 19.9165 131.455 main 980 943 PPPP______P___ WP111983 20.0649 131.472 XX 135 -5 19.7850 131.442 5 110 900 9 125 125 9 300 300 19.8350 131.465 6 126 905 19.8499 131.500 SuperT 112 905 20.0477 131.396 4 133 9 304
1983259N08161 1983 58 WP MM FORREST 1983-09-23 18:00:00 TS 20.1769 131.040 110 900 tokyo main 934 901 OOOO______P___ jtwc_wp WP111983 20.3000 131.100 XX 130 -5 20.1000 131.000 5 110 900 9 125 125 9 300 300 0 20.1000 131.000 6 126 908 20.1000 131.100 SuperT 110 910 20.2844 130.999 4 132 10 305
1983259N08161 1983 58 WP MM FORREST 1983-09-23 21:00:00 TS 20.4723 130.623 main 901 869 PPPP______P___ WP111983 20.5351 130.642 XX 130 -5 20.4348 130.642 5 110 905 9 125 125 9 300 300 20.4850 130.528 6 121 910 20.3774 130.700 SuperT 110 910 20.5290 130.602 4 131 10 309
1983259N08161 1983 58 WP MM FORREST 1983-09-24 00:00:00 TS 20.8000 130.220 110 910 tokyo main 869 850 OOOO______O___ jtwc_wp WP111983 20.8000 130.200 XX 130 -5 20.8000 130.300 5 110 910 9 125 125 9 300 300 0 20.9000 130.100 6 116 912 20.7000 130.300 SuperT 110 910 20.8000 130.200 4 130 10 314
1983259N08161 1983 58 WP MM FORREST 1983-09-24 03:00:00 TS 21.1565 129.857 main 854 828 PPPP______P___ WP111983 21.1346 129.915 XX 127 -5 21.1924 129.915 5 110 912 9 125 125 9 300 300 21.2572 129.792 6 116 913 21.0849 129.900 SuperT 107 912 21.1132 129.762 4 127 10 317
1983259N08161 1983 58 WP MM FORREST 1983-09-24 06:00:00 TS 21.5310 129.484 110 915 tokyo main 828 790 OOOO______P___ jtwc_wp WP111983 21.5000 129.600 XX 125 -5 21.6000 129.500 5 110 915 9 125 125 9 300 300 0 21.6000 129.500 6 116 915 21.5000 129.500 SuperT 105 915 21.4552 129.320 4 125 11 314
1983259N08161 1983 58 WP MM FORREST 1983-09-24 09:00:00 TS 21.9070 129.034 main 781 726 PPPP______P___ WP111983 21.8430 129.043 XX 122 -5 22.0151 129.035 5 105 917 9 125 125 9 350 300 21.9501 129.107 6 116 917 21.9075 129.092 SuperT 102 917 21.8195 128.893 4 122 11 312
1983259N08161 1983 58 WP MM FORREST 1983-09-24 12:00:00 TS 22.2800 128.600 100 920 tokyo main 726 685 OOOO______O___ jtwc_wp WP111983 22.2000 128.500 XX 120 -5 22.4000 128.600 5 100 920 9 125 125 7 400 300 0 22.3000 128.700 6 116 919 22.3000 128.700 SuperT 100 920 22.2000 128.500 4 120 10 316
1983259N08161 1983 58 WP MM FORREST 1983-09-24 15:00:00 TS 22.6424 128.264 main 685 642 PPPP______P___ WP111983 22.5921 128.219 XX 120 -5 22.7073 128.277 5 100 920 9 125 125 7 400 300 22.6499 128.335 6 116 918 22.6574 128.335 SuperT 102 917 22.6055 128.156 4 120 9 321
1983259N08161 1983 58 WP MM FORREST 1983-09-24 18:00:00 TS 23.0044 127.969 100 920 tokyo main 642 601 OOOO______P___ jtwc_wp WP111983 23.0000 128.000 XX 120 -5 23.0000 128.000 5 100 920 9 125 125 7 400 300 0 23.0000 128.000 6 116 918 23.0000 128.000 SuperT 105 915 23.0219 127.847 4 120 9 323
1983259N08161 1983 58 WP MM FORREST 1983-09-24 21:00:00 TS 23.3800 127.656 main 601 565 PPPP______P___ WP111983 23.4226 127.643 XX 120 -5 23.3424 127.700 5 100 920 9 125 125 7 400 300 23.3499 127.685 6 116 916 23.3574 127.685 SuperT 105 915 23.4275 127.565 4 120 9 323
1983259N08161 1983 58 WP MM FORREST 1983-09-25 00:00:00 TS 23.7400 127.360 100 920 tokyo main 565 527 OOOO______O___ jtwc_wp WP111983 23.8000 127.300 XX 120 -5 23.7000 127.400 5 100 920 9 125 125 3 400 300 0 23.7000 127.400 6 116 915 23.7000 127.400 SuperT 105 915 23.8000 127.300 4 120 8 323
1983259N08161 1983 58 WP MM FORREST 1983-09-25 03:00:00 TS 24.0485 127.102 main 527 500 PPPP______P___ WP111983 24.0648 127.092 XX 122 -5 24.0500 127.085 5 100 920 9 125 125 3 400 300 24.0499 127.142 6 121 912 23.9999 127.142 SuperT 107 912 24.0780 127.046 4 120 8 323
1983259N08161 1983 58 WP MM FORREST 1983-09-25 06:00:00 TS 24.3454 126.861 100 920 tokyo main 500 466 OOOO______P___ jtwc_wp WP111983 24.3000 126.900 XX 125 -5 24.4000 126.800 5 100 920 9 125 125 2 400 300 0 24.4000 126.900 6 126 910 24.3000 126.900 SuperT 110 910 24.3269 126.805 4 120 8 324
1983259N08161 1983 58 WP MM FORREST 1983-09-25 09:00:00 TS 24.6599 126.618 main 465 443 PPPP______P___ WP111983 24.5701 126.607 XX 122 -5 24.7573 126.600 5 105 920 9 125 125 2 425 300 24.7574 126.657 6 121 914 24.6274 126.665 SuperT 107 912 24.5874 126.562 4 120 8 325
1983259N08161 1983 58 WP MM FORREST 1983-09-25 12:00:00 TS 25.0000 126.360 110 920 tokyo main 443 413 OOOO______O___ jtwc_wp WP111983 24.9000 126.300 XX 120 -5 25.1000 126.400 5 110 920 9 125 125 2 450 300 0 25.1000 126.400 6 116 918 25.0000 126.400 SuperT 105 915 24.9000 126.300 4 120 9 325
1983259N08161 1983 58 WP MM FORREST 1983-09-25 15:00:00 TS 25.3696 126.069 main 414 389 PPPP______P___ WP111983 25.3198 126.065 XX 120 -5 25.3700 126.122 5 105 920 9 125 100 2 425 275 25.3774 126.115 6 116 919 25.4426 126.058 SuperT 102 917 25.3380 125.985 4 118 10 325
1983259N08161 1983 58 WP MM FORREST 1983-09-25 18:00:00 TS 25.7856 125.750 100 920 tokyo main 391 366 OOOO______P___ jtwc_wp WP111983 25.8000 125.800 XX 120 -5 25.7000 125.800 5 100 920 8 125 75 8 400 250 0 25.7000 125.800 6 116 920 25.9000 125.700 SuperT 100 920 25.8278 125.651 4 117 11 327
1983259N08161 1983 58 WP MM FORREST 1983-09-25 21:00:00 TS 26.2758 125.403 main 370 361 PPPP______P___ WP111983 26.3001 125.415 XX 117 -5 26.2500 125.450 5 100 922 8 112 87 8 400 250 26.1925 125.450 6 116 922 26.3074 125.385 SuperT 100 920 26.3287 125.317 4 116 12 328
1983259N08161 1983 58 WP MM FORREST 1983-09-26 00:00:00 TS 26.7600 125.060 100 925 tokyo main 369 342 OOOO______O___ jtwc_wp WP111983 26.8000 125.000 XX 115 -5 26.8000 125.100 5 100 925 9 100 100 8 400 250 0 26.7000 125.100 6 116 924 26.7000 125.100 SuperT 100 920 26.8000 125.000 4 115 11 326
1983259N08161 1983 58 WP MM FORREST 1983-09-26 03:00:00 TS 27.1582 124.738 main 328 298 PPPP______P___ WP111983 27.2875 124.613 XX 115 -5 27.1299 124.784 5 100 925 9 100 100 8 400 250 27.0725 124.770 6 116 924 27.1149 124.835 SuperT 97 922 27.1859 124.687 4 113 9 324
1983259N08161 1983 58 WP MM FORREST 1983-09-26 06:00:00 TS 27.5075 124.460 100 925 tokyo main 298 260 OOOO______P___ jtwc_wp WP111983 27.7000 124.300 XX 115 -5 27.4000 124.500 5 100 925 9 100 100 8 400 250 0 27.4000 124.500 6 116 925 27.5000 124.600 ST 95 925 27.5375 124.402 4 112 8 326
1983259N08161 1983 58 WP MM FORREST 1983-09-26 09:00:00 TS 27.8195 124.236 main 260 238 PPPP______P___ WP111983 27.9499 124.105 XX 112 -5 27.7350 124.213 5 100 925 9 100 100 8 400 250 27.7349 124.320 6 111 927 27.8075 124.377 ST 95 927 27.8703 124.166 4 111 7 332
1983259N08161 1983 58 WP MM FORREST 1983-09-26 12:00:00 TS 28.1400 124.080 100 925 tokyo main 238 209 OOOO______O___ jtwc_wp WP111983 28.2000 124.000 XX 110 -5 28.1000 124.000 5 100 925 9 100 100 8 400 250 0 28.1000 124.200 6 106 930 28.1000 124.200 ST 95 930 28.2000 124.000 4 110 8 342
1983259N08161 1983 58 WP MM FORREST 1983-09-26 15:00:00 TS 28.5332 123.965 main 209 187 PPPP______P___ WP111983 28.6500 123.920 XX 107 -5 28.4924 123.905 5 100 927 9 100 100 8 400 250 28.5350 124.070 6 106 932 28.4350 124.063 ST 92 935 28.5534 123.867 4 106 8 350
1983259N08161 1983 58 WP MM FORREST 1983-09-26 18:00:00 TS 28.9413 123.923 100 930 tokyo main 187 184 OOOO______P___ jtwc_wp WP111983 29.1000 123.900 XX 105 -5 28.9000 123.900 5 100 930 9 100 100 8 400 250 0 29.0000 124.000 6 106 935 28.8000 124.000 ST 90 940 28.9065 123.813 4 102 8 357
1983259N08161 1983 58 WP MM FORREST 1983-09-26 21:00:00 TS 29.3112 123.927 main 184 184 PPPP______P___ WP111983 29.3574 123.898 XX 100 -5 29.2998 123.890 5 95 932 9 100 100 8 375 250 29.4649 124.005 6 101 935 29.1774 123.990 ST 90 942 29.2564 123.852 4 98 7 8
1983259N08161 1983 58 WP MM FORREST 1983-09-27 00:00:00 TS 29.6800 124.040 90 935 tokyo main 201 201 OOOO______O___ jtwc_wp WP111983 29.6000 124.000 XX 95 -5 29.7000 124.000 5 90 935 9 100 100 8 350 250 0 29.9000 124.100 5 97 935 29.6000 124.100 ST 90 945 29.6000 124.000 4 95 8 20
1983259N08161 1983 58 WP MM FORREST 1983-09-27 03:00:00 TS 30.0733 124.248 main 223 223 PPPP______P___ WP111983 29.9999 124.240 XX 90 -5 30.1074 124.282 5 87 937 9 100 100 8 350 250 30.2496 124.226 5 92 937 30.0996 124.310 ST 87 950 29.9099 124.180 4 91 9 32
1983259N08161 1983 58 WP MM FORREST 1983-09-27 06:00:00 TS 30.4633 124.595 85 940 tokyo main 261 261 OOOO______P___ jtwc_wp WP111983 30.4000 124.600 85 -1 30.5000 124.700 5 85 940 9 100 100 8 350 250 0 30.6000 124.500 5 87 940 30.6000 124.700 ST 85 955 30.2165 124.477 4 87 10 43
1983259N08161 1983 58 WP MM FORREST 1983-09-27 09:00:00 TS 30.8222 125.049 main 294 232 PPPP______P___ WP111983 30.6417 124.969 82 -1 30.8569 125.133 5 85 942 9 100 100 8 350 250 31.0572 124.960 5 82 945 31.0149 125.275 ST 82 957 30.5400 124.910 4 83 12 52
1983259N08161 1983 58 WP MM FORREST 1983-09-27 12:00:00 TS 31.1800 125.660 85 945 tokyo main 230 189 OOOO______O___ jtwc_wp WP111983 30.9000 125.500 80 -1 31.2000 125.700 5 85 945 9 100 100 8 350 250 0 31.5000 125.600 4 77 950 31.4000 126.000 T 80 960 30.9000 125.500 4 80 14 57
1983259N08161 1983 58 WP MM FORREST 1983-09-27 15:00:00 TS 31.5602 126.371 main 178 149 PPPP______P___ WP111983 31.3200 126.267 75 -1 31.5496 126.426 5 82 952 9 90 90 8 300 225 31.8292 126.318 4 72 955 31.8144 126.755 T 75 965 31.2877 126.089 4 76 15 60
1983259N08161 1983 58 WP MM FORREST 1983-09-27 18:00:00 TS 31.9429 127.231 80 960 tokyo main 155 148 OOOO______P___ jtwc_wp WP111983 31.8000 127.200 70 -1 31.9000 127.300 5 80 960 9 80 80 4 250 200 0 32.1000 127.200 4 68 960 32.2000 127.600 T 70 970 31.7146 126.856 4 72 17 63
1983259N08161 1983 58 WP MM FORREST 1983-09-27 21:00:00 TS 32.3238 128.135 main 153 43 PPPP______P___ WP111983 32.3060 128.057 67 -1 32.2695 128.173 5 70 967 9 65 65 4 250 225 32.3626 128.174 4 63 967 32.4960 128.403 T 65 975 32.1849 127.869 4 68 19 68
1983259N08161 1983 58 WP MM FORREST 1983-09-28 00:00:00 TS 32.6722 129.317 60 975 tokyo main 35 0 OOOO______O___ jtwc_wp WP111983 32.7000 129.200 65 -1 32.6000 129.300 4 60 975 9 50 50 9 250 250 0 32.6000 129.400 3 58 975 32.8000 129.500 STS 60 980 32.7000 129.200 4 65 24 74
1983259N08161 1983 58 WP MM FORREST 1983-09-28 03:00:00 TS 32.9800 130.912 main 0 0 PPPP______P___ WP111983 32.8388 130.849 57 -1 32.8125 130.773 4 980 9 9 32.7981 130.909 3 53 980 33.1840 131.132 STS 52 982 33.2978 130.974 4 61 30 78
1983259N08161 1983 58 WP MM FORREST 1983-09-28 06:00:00 MX 33.2871 132.812 985 tokyo main 0 0 OOOO______P___ jtwc_wp WP111983 32.8000 132.800 50 -1 33.0000 132.600 6 985 0 0 0 33.0000 132.700 3 48 985 33.6000 133.100 TS 45 985 33.9048 133.067 4 57 34 79
1983259N08161 1983 58 WP MM FORREST 1983-09-28 09:00:00 MX 33.6454 134.875 main 24 0 _PP_______P___ WP111983 -1 33.2402 134.674 6 987 0 0 33.2396 134.646 3 43 987 TS 34.4564 135.304 4 53 36 79
1983259N08161 1983 58 WP MM FORREST 1983-09-28 12:00:00 ET 33.9667 137.100 990 tokyo main 38 38 _OO_______O___ -1 33.5000 137.000 6 990 0 0 0 33.5000 136.800 9 38 990 34.9000 137.500 5 50 38 81
1983259N08161 1983 58 WP MM FORREST 1983-09-28 15:00:00 ET 34.2238 139.387 main 66 66 _PP_______P___ -1 33.7144 139.533 6 991 0 0 33.7489 139.121 9 38 990 35.2082 139.506 5 46 38 83
1983259N08161 1983 58 WP MM FORREST 1983-09-28 18:00:00 ET 34.4219 141.651 992 tokyo main 148 148 _OO_______P___ -1 34.0000 142.000 6 992 0 0 0 34.0000 141.500 9 38 990 35.4062 141.335 5 42 35 83
1983259N08161 1983 58 WP MM FORREST 1983-09-28 21:00:00 ET 34.6638 143.599 main 268 268 _PP_______P___ -1 34.4361 143.784 6 991 0 0 34.2560 143.782 9 38 989 35.5271 143.047 5 38 34 80
1983259N08161 1983 58 WP MM FORREST 1983-09-29 00:00:00 ET 35.0167 145.783 990 tokyo main 450 450 _OO_______O___ -1 35.0000 146.000 6 990 0 0 0 34.5000 146.000 9 38 989 35.6000 144.700 5 35 52 80
1983259N08161 1983 58 WP MM FORREST 1983-09-29 03:00:00 ET 35.5254 149.848 main 799 799 _P____________ -1 35.5254 149.848 6 989 0 0 9 5 67 82
1983259N08161 1983 58 WP MM FORREST 1983-09-29 06:00:00 ET 36.0000 154.000 988 tokyo main 1080 1080 _O____________ -1 36.0000 154.000 6 988 0 0 0 5 60 81
1983259N08161 1983 58 WP MM FORREST 1983-09-29 09:00:00 ET 36.4849 157.227 main 1189 1189 _P____________ -1 36.4849 157.227 6 986 0 0 5 49 78
1983259N08161 1983 58 WP MM FORREST 1983-09-29 12:00:00 ET 37.0000 160.000 984 tokyo main 1282 1282 _O____________ -1 37.0000 160.000 6 984 0 0 0 43 78
1983259N08161 1983 58 WP MM FORREST 1983-09-29 15:00:00 ET 37.4101 162.515 main 1387 1387 _P____________ -1 37.4101 162.515 6 984 0 0 41 76
1983259N08161 1983 58 WP MM FORREST 1983-09-29 18:00:00 ET 38.0000 165.000 984 tokyo main 1497 1497 _O____________ -1 38.0000 165.000 6 984 0 0 0 47 71
1983259N08161 1983 58 WP MM FORREST 1983-09-29 21:00:00 ET 38.9371 168.136 main 1578 1578 _P____________ -1 38.9371 168.136 6 978 0 0 51 67
1983259N08161 1983 58 WP MM FORREST 1983-09-30 00:00:00 ET 40.0000 171.000 972 tokyo main 1630 1627 _O____________ -1 40.0000 171.000 6 972 0 0 0 41 60
1983259N08161 1983 58 WP MM FORREST 1983-09-30 03:00:00 ET 40.9857 172.738 main 1627 1610 _P____________ -1 40.9857 172.738 6 972 0 0 30 49
1983259N08161 1983 58 WP MM FORREST 1983-09-30 06:00:00 ET 42.0000 174.000 972 tokyo main 1606 1590 _O____________ -1 42.0000 174.000 6 972 0 0 0 29 46
1983259N08161 1983 58 WP MM FORREST 1983-09-30 09:00:00 ET 42.9981 175.505 main 1589 1439 _P____________ -1 42.9981 175.505 6 972 0 0 30 48
1983259N08161 1983 58 WP MM FORREST 1983-09-30 12:00:00 ET 44.0000 177.000 972 tokyo main 1426 1278 _O____________ -1 44.0000 177.000 6 972 0 0 0 29 47
1983259N08161 1983 58 WP MM FORREST 1983-09-30 15:00:00 ET 45.0038 178.489 main 1264 1117 _P____________ -1 45.0038 178.489 6 971 0 0 29 47
1983259N08161 1983 58 EP CP FORREST 1983-09-30 18:00:00 ET 46.0000 180.000 970 tokyo main 1104 _O____________ -1 46.0000 180.000 6 970 0 0 0 29 46

Digital Typhoon Data and Search

About IBTrACS Database

This database is a web-friendly format of International Best Track Archive for Climate Stewardship (IBTrACS), a global best track data archive curated by NOAA dating back to 1842.

Updated: 2021-10-25